Time;durP1;ratioP1;P1;durP2;ratioP2;P2;SDS_P1;SDS_P2;PMS_P1;PMS_P2;Temp;Humidity;BMP_temperature;BMP_pressure;BME280_temperature;BME280_humidity;BME280_pressure;Samples;Min_cycle;Max_cycle;Signal;HPM_P1;HPM_P2
2021/04/20 00:00:33;;;;;;;27.75;15.05;;;;;;;14.53;68.46;98883.49;4364841;80;28646;-87
2021/04/20 00:06:38;;;;;;;30.72;16.17;;;;;;;14.60;70.23;98883.26;4364976;80;28642;-87
2021/04/20 00:12:41;;;;;;;33.60;17.10;;;;;;;14.21;77.13;98886.54;4354573;80;28606;-87
2021/04/20 00:18:43;;;;;;;32.00;16.00;;;;;;;14.18;76.83;98880.28;4369039;81;28575;-86
2021/04/20 00:24:46;;;;;;;33.50;16.80;;;;;;;14.34;73.47;98875.00;4350060;81;28565;-86
2021/04/20 00:30:48;;;;;;;32.25;17.17;;;;;;;14.46;76.16;98874.26;4370058;80;28579;-86
2021/04/20 00:36:51;;;;;;;38.63;18.10;;;;;;;14.90;70.90;98874.53;4370237;81;28619;-86
2021/04/20 00:42:57;;;;;;;41.92;18.90;;;;;;;14.87;69.99;98872.89;4367271;80;28617;-87
2021/04/20 00:48:59;;;;;;;38.67;18.95;;;;;;;14.90;70.04;98873.70;4311166;81;28587;-87
2021/04/20 00:55:03;;;;;;;44.63;18.60;;;;;;;14.74;72.19;98869.59;4366241;80;28643;-88
2021/04/20 01:01:06;;;;;;;45.03;20.00;;;;;;;15.32;66.74;98868.71;4365059;81;28611;-88
2021/04/20 01:07:10;;;;;;;48.05;20.50;;;;;;;15.64;65.60;98862.00;4369227;81;28611;-86
2021/04/20 01:13:13;;;;;;;38.35;18.00;;;;;;;14.98;67.58;98856.14;4368709;80;28630;-87
2021/04/20 01:19:19;;;;;;;40.03;17.92;;;;;;;14.79;67.38;98864.74;4357745;81;28633;-85
2021/04/20 01:25:22;;;;;;;47.03;20.30;;;;;;;14.88;70.02;98856.37;4370615;81;28606;-88
2021/04/20 01:31:27;;;;;;;50.00;21.30;;;;;;;14.46;73.26;98858.55;4378631;81;28646;-86
2021/04/20 01:37:30;;;;;;;48.90;20.63;;;;;;;15.25;71.15;98857.87;4370419;81;28594;-86
2021/04/20 01:43:32;;;;;;;50.08;19.40;;;;;;;14.94;71.86;98849.08;4350618;80;28591;-87
2021/04/20 01:49:34;;;;;;;47.78;20.37;;;;;;;15.33;71.27;98855.44;4348882;81;28583;-86
2021/04/20 01:55:37;;;;;;;45.75;20.55;;;;;;;15.23;67.99;98860.83;4391884;80;28617;-87
2021/04/20 02:01:40;;;;;;;51.18;21.50;;;;;;;15.30;67.64;98864.11;4390374;81;28605;-87
2021/04/20 02:07:44;;;;;;;48.30;19.55;;;;;;;15.33;69.60;98862.77;4400959;80;28628;-87
2021/04/20 02:13:47;;;;;;;46.40;18.27;;;;;;;15.01;74.28;98857.78;4383424;80;28580;-87
2021/04/20 02:19:50;;;;;;;45.73;19.37;;;;;;;15.43;70.45;98856.02;4390402;80;28585;-87
2021/04/20 02:25:53;;;;;;;54.00;22.45;;;;;;;15.60;68.94;98852.23;4333723;81;28583;-87
2021/04/20 02:31:57;;;;;;;55.43;22.75;;;;;;;15.41;71.86;98852.77;4405755;79;28591;-86
2021/04/20 02:38:00;;;;;;;46.00;19.50;;;;;;;15.56;71.80;98856.02;4311240;82;28610;-86
2021/04/20 02:44:04;;;;;;;47.95;20.10;;;;;;;15.87;69.43;98853.34;4284340;81;28626;-86
2021/04/20 02:50:11;;;;;;;46.48;19.77;;;;;;;15.49;72.90;98852.78;4397105;80;28585;-85
2021/04/20 02:56:17;;;;;;;47.67;20.92;;;;;;;15.97;70.05;98848.51;4399053;80;28585;-86
2021/04/20 03:02:20;;;;;;;49.27;20.00;;;;;;;15.71;70.19;98853.08;4322792;81;28593;-85
2021/04/20 03:08:22;;;;;;;43.73;17.30;;;;;;;16.21;68.00;98848.50;4319718;81;28595;-85
2021/04/20 03:14:27;;;;;;;43.78;17.23;;;;;;;15.96;68.36;98847.41;4371266;80;28614;-85
2021/04/20 03:20:30;;;;;;;45.80;19.30;;;;;;;16.27;67.32;98846.03;4399263;80;28556;-84
2021/04/20 03:26:37;;;;;;;47.35;19.67;;;;;;;15.21;74.17;98848.66;4399230;80;28580;-85
2021/04/20 03:32:43;;;;;;;50.50;20.57;;;;;;;15.88;67.49;98838.73;4398627;80;28593;-85
2021/04/20 03:39:00;;;;;;;44.65;18.75;;;;;;;15.39;71.98;98847.34;4399183;81;28559;-86
2021/04/20 03:45:05;;;;;;;;;;;;;;;15.59;71.47;98843.31;4380596;80;28601;-87
2021/04/20 03:51:15;;;;;;;45.40;17.45;;;;;;;15.72;70.19;98845.22;4389161;81;20289;-86
2021/04/20 03:57:22;;;;;;;48.90;19.82;;;;;;;15.87;68.61;98843.85;4367034;80;28606;-87
2021/04/20 04:03:27;;;;;;;40.23;18.40;;;;;;;15.99;66.38;98833.34;4361525;80;28598;-85
2021/04/20 04:09:30;;;;;;;41.33;18.40;;;;;;;15.93;66.83;98832.53;4370290;80;28619;-85
2021/04/20 04:15:35;;;;;;;49.30;20.92;;;;;;;16.06;65.59;98823.01;4347035;81;28603;-86
2021/04/20 04:21:44;;;;;;;47.17;19.95;;;;;;;15.94;66.34;98823.30;4349705;81;28649;-88
2021/04/20 04:27:48;;;;;;;42.55;18.62;;;;;;;15.94;67.32;98826.02;4357248;81;28564;-86
2021/04/20 04:33:52;;;;;;;48.08;19.85;;;;;;;16.33;64.75;98827.32;4362140;80;28657;-85
2021/04/20 04:39:55;;;;;;;52.53;22.17;;;;;;;15.85;68.98;98846.59;4367534;80;28597;-87
2021/04/20 04:45:58;;;;;;;51.88;23.60;;;;;;;16.43;64.35;98842.75;4361527;80;28580;-87
2021/04/20 04:52:02;;;;;;;56.37;22.82;;;;;;;16.66;63.53;98835.91;4361588;80;28584;-87
2021/04/20 04:58:06;;;;;;;56.70;23.90;;;;;;;16.76;63.51;98829.62;4366772;80;28624;-86
2021/04/20 05:04:11;;;;;;;69.27;27.37;;;;;;;17.18;61.51;98837.61;4348486;80;28734;-86
2021/04/20 05:10:14;;;;;;;71.43;29.60;;;;;;;17.18;62.01;98838.44;4399728;80;28604;-82
2021/04/20 05:16:19;;;;;;;65.52;27.30;;;;;;;17.14;62.67;98841.45;4358094;81;28613;-89
2021/04/20 05:22:22;;;;;;;72.40;28.07;;;;;;;17.00;64.45;98842.05;4365340;81;28610;-88
2021/04/20 05:28:24;;;;;;;66.60;27.07;;;;;;;17.35;63.28;98848.14;4369913;81;28568;-87
2021/04/20 05:34:26;;;;;;;70.70;27.65;;;;;;;17.67;61.41;98843.56;4353847;81;28963;-87
2021/04/20 05:40:36;;;;;;;66.02;26.10;;;;;;;17.36;63.02;98845.69;4368897;81;28623;-87
2021/04/20 05:46:38;;;;;;;50.83;23.05;;;;;;;17.47;61.86;98846.42;4354561;81;28626;-86
2021/04/20 05:52:40;;;;;;;62.93;25.12;;;;;;;17.07;63.03;98850.45;4366738;81;28630;-87
2021/04/20 05:58:43;;;;;;;58.30;24.35;;;;;;;17.85;60.58;98858.94;4349972;80;28595;-87
2021/04/20 06:04:49;;;;;;;63.65;27.07;;;;;;;18.08;57.67;98857.42;4366728;81;28630;-86
2021/04/20 06:10:52;;;;;;;55.80;24.20;;;;;;;18.80;57.27;98850.99;4319768;80;28627;-87
2021/04/20 06:16:54;;;;;;;59.30;25.90;;;;;;;18.75;55.00;98855.13;4360153;80;28654;-86
2021/04/20 06:22:58;;;;;;;56.53;25.72;;;;;;;18.86;55.52;98855.83;4350154;81;28567;-86
2021/04/20 06:29:02;;;;;;;54.53;23.45;;;;;;;18.79;53.68;98856.98;4358108;81;28643;-87
2021/04/20 06:35:11;;;;;;;52.17;24.20;;;;;;;19.42;52.39;98863.86;4370067;81;28560;-86
2021/04/20 06:41:17;;;;;;;52.93;23.40;;;;;;;18.79;53.64;98854.79;4356275;81;28630;-86
2021/04/20 06:47:52;;;;;;;42.60;20.57;;;;;;;18.55;52.43;98861.62;4351548;80;28615;-87
2021/04/20 06:54:02;;;;;;;51.20;24.12;;;;;;;19.34;50.66;98861.21;4349048;80;28642;-86
2021/04/20 07:00:21;;;;;;;47.15;24.10;;;;;;;19.74;49.57;98865.02;4350760;80;28598;-86
2021/04/20 07:06:53;;;;;;;46.98;23.45;;;;;;;19.61;50.08;98858.39;4355245;80;28619;-85
2021/04/20 07:12:58;;;;;;;53.63;26.02;;;;;;;20.00;49.80;98855.08;4350888;81;28625;-87
2021/04/20 07:19:22;;;;;;;;;;;;;;;19.55;49.95;98864.22;4349249;81;28634;-88
2021/04/20 07:26:04;;;;;;;45.23;22.05;;;;;;;19.69;49.17;98858.84;4350600;81;20483;-87
2021/04/20 07:32:29;;;;;;;48.90;23.15;;;;;;;19.79;49.31;98855.95;4348025;81;28673;-85
2021/04/20 07:38:51;;;;;;;49.38;24.37;;;;;;;19.60;51.14;98866.31;4362393;81;28570;-86
2021/04/20 07:45:31;;;;;;;51.70;24.85;;;;;;;19.72;51.58;98859.02;4361399;80;28583;-87
2021/04/20 07:52:06;;;;;;;51.85;25.02;;;;;;;19.47;51.96;98863.77;4360298;81;28593;-86
2021/04/20 07:58:12;;;;;;;44.30;21.50;;;;;;;19.61;51.49;98863.84;4360735;81;28579;-87
2021/04/20 08:05:01;;;;;;;49.93;24.43;;;;;;;19.53;50.73;98859.62;4360589;81;28604;-86
2021/04/20 08:11:44;;;;;;;55.43;26.17;;;;;;;19.79;51.00;98855.38;4358022;81;28692;-86
2021/04/20 08:18:08;;;;;;;51.70;24.75;;;;;;;19.74;50.59;98853.28;4353213;81;28594;-88
2021/04/20 08:24:26;;;;;;;49.93;23.92;;;;;;;19.57;50.84;98850.52;4363630;81;28683;-84
2021/04/20 08:30:55;;;;;;;56.35;25.95;;;;;;;19.92;52.06;98850.27;4359235;81;28596;-84
2021/04/20 08:37:33;;;;;;;48.60;25.32;;;;;;;19.86;51.57;98844.66;4358725;81;28562;-87
2021/04/20 08:43:58;;;;;;;48.70;25.52;;;;;;;20.49;50.33;98838.40;4364506;81;28579;-82
2021/04/20 08:50:13;;;;;;;44.90;24.23;;;;;;;20.51;49.12;98836.71;4352007;81;28643;-82
2021/04/20 08:56:35;;;;;;;42.65;22.02;;;;;;;20.62;48.64;98836.80;4376644;80;28595;-81
2021/04/20 09:03:18;;;;;;;42.08;23.73;;;;;;;20.79;48.04;98836.73;4325092;81;28586;-90
2021/04/20 09:09:25;;;;;;;47.08;25.43;;;;;;;21.40;47.05;98828.35;4340584;81;28579;-91
2021/04/20 09:15:31;;;;;;;45.53;24.43;;;;;;;21.52;46.38;98822.34;4294172;81;28605;-85
2021/04/20 09:22:09;;;;;;;36.73;20.27;;;;;;;21.35;45.90;98821.08;4382870;80;28599;-87
2021/04/20 09:28:28;;;;;;;34.65;19.92;;;;;;;21.68;43.18;98809.94;4340415;80;28599;-87
2021/04/20 09:34:35;;;;;;;39.73;21.10;;;;;;;22.26;42.60;98807.39;4365691;80;28575;-92
2021/04/20 09:40:39;;;;;;;;;;;;;;;22.73;42.12;98795.16;4351624;80;28619;-85
2021/04/20 09:46:56;;;;;;;32.75;17.35;;;;;;;22.62;39.90;98794.67;4344212;80;20204;-90
2021/04/20 09:53:35;;;;;;;27.50;14.93;;;;;;;22.46;39.17;98796.18;4369338;80;28699;-88
2021/04/20 09:59:49;;;;;;;28.62;15.63;;;;;;;22.91;36.71;98798.78;4341954;80;28618;-87
2021/04/20 10:05:57;;;;;;;32.20;17.32;;;;;;;23.34;39.01;98786.25;4339007;80;28692;-91
2021/04/20 10:12:13;;;;;;;29.40;15.88;;;;;;;23.47;39.45;98783.66;4351298;80;28629;-89
2021/04/20 10:19:10;;;;;;;27.70;15.25;;;;;;;23.36;37.98;98776.33;4337528;80;28637;-87
2021/04/20 10:25:44;;;;;;;25.35;14.60;;;;;;;23.20;36.23;98783.63;4383119;80;28606;-92
2021/04/20 10:32:22;;;;;;;29.07;15.38;;;;;;;23.08;37.34;98790.31;4374245;80;28654;-88
2021/04/20 10:38:34;;;;;;;33.02;18.27;;;;;;;21.85;40.07;98801.61;4314762;80;28588;-87
2021/04/20 10:44:38;;;;;;;27.93;14.68;;;;;;;21.50;41.27;98789.83;4369177;80;28571;-86
2021/04/20 10:50:44;;;;;;;24.37;13.32;;;;;;;21.88;40.41;98799.61;4360767;80;28598;-88
2021/04/20 10:56:51;;;;;;;14.93;8.40;;;;;;;21.92;39.79;98796.52;4282866;81;28606;-88
2021/04/20 11:02:57;;;;;;;11.20;6.45;;;;;;;21.63;38.86;98787.34;4286010;82;28574;-88
2021/04/20 11:09:00;;;;;;;8.13;5.00;;;;;;;21.76;39.62;98778.85;4361105;80;28615;-88
2021/04/20 11:15:03;;;;;;;7.87;4.22;;;;;;;22.18;39.40;98774.47;4316732;80;28642;-88
2021/04/20 11:21:10;;;;;;;8.80;5.67;;;;;;;22.54;38.38;98765.31;4293615;82;28578;-88
2021/04/20 11:27:13;;;;;;;9.58;5.40;;;;;;;22.37;38.14;98757.23;4331785;81;28551;-88
2021/04/20 11:33:26;;;;;;;9.45;5.30;;;;;;;22.51;37.83;98759.89;4329290;80;28644;-89
2021/04/20 11:39:43;;;;;;;9.13;6.12;;;;;;;22.70;36.55;98757.45;4327987;82;28571;-89
2021/04/20 11:45:46;;;;;;;8.03;5.92;;;;;;;22.39;35.42;98744.61;4324896;82;28633;-89
2021/04/20 11:51:50;;;;;;;9.70;6.22;;;;;;;22.62;33.00;98748.09;4311487;81;28639;-89
2021/04/20 11:57:55;;;;;;;9.03;5.22;;;;;;;23.09;33.49;98743.95;4332253;81;28611;-89
2021/04/20 12:04:06;;;;;;;8.63;5.78;;;;;;;23.00;32.60;98739.02;4336001;81;28597;-89
2021/04/20 12:10:18;;;;;;;8.20;5.08;;;;;;;22.60;31.73;98744.05;4355766;81;28598;-84
2021/04/20 12:16:23;;;;;;;8.58;5.78;;;;;;;22.38;34.03;98738.89;4359059;80;28653;-88
2021/04/20 12:22:41;;;;;;;8.93;5.55;;;;;;;21.82;34.55;98740.10;4601501;76;86188;-88
2021/04/20 12:28:56;;;;;;;7.83;5.15;;;;;;;23.74;31.49;98736.41;4439582;79;28577;-90
2021/04/20 12:35:00;;;;;;;8.15;5.35;;;;;;;24.25;31.29;98734.41;4493212;78;28617;-90
2021/04/20 12:41:05;;;;;;;8.45;5.50;;;;;;;22.12;34.15;98728.63;4474338;78;28586;-89
2021/04/20 12:47:10;;;;;;;8.33;5.47;;;;;;;22.11;36.26;98731.13;4505678;78;28571;-89
2021/04/20 12:53:16;;;;;;;8.70;5.12;;;;;;;22.15;37.32;98726.08;4516039;79;28594;-89
2021/04/20 12:59:23;;;;;;;7.67;4.62;;;;;;;22.60;36.46;98720.77;4515483;79;28587;-88
2021/04/20 13:05:41;;;;;;;6.85;4.28;;;;;;;23.55;36.01;98720.33;4512870;79;28593;-89
2021/04/20 13:11:47;;;;;;;5.42;3.80;;;;;;;23.62;35.72;98720.06;4511045;79;28620;-87
2021/04/20 13:17:54;;;;;;;6.67;3.95;;;;;;;23.87;33.35;98716.19;4495117;77;28568;-89
2021/04/20 13:24:17;;;;;;;6.62;3.65;;;;;;;24.16;33.26;98711.91;4504871;78;28581;-88
2021/04/20 13:30:27;;;;;;;13.38;4.20;;;;;;;23.39;32.21;98718.89;4472182;78;28596;-88
2021/04/20 13:36:32;;;;;;;5.97;3.98;;;;;;;24.38;31.03;98713.34;4390792;80;28620;-87
2021/04/20 13:42:40;;;;;;;5.05;3.95;;;;;;;23.96;31.22;98716.17;4354958;80;28593;-88
2021/04/20 13:49:29;;;;;;;8.18;4.25;;;;;;;23.80;31.45;98714.53;4195144;81;28553;-87
2021/04/20 13:55:43;;;;;;;6.08;4.10;;;;;;;23.17;33.18;98714.36;4363308;80;28635;-87
2021/04/20 14:01:49;;;;;;;6.30;3.83;;;;;;;24.76;32.03;98699.52;4361375;82;28616;-88
2021/04/20 14:07:54;;;;;;;6.75;3.40;;;;;;;24.89;31.85;98699.05;4373550;80;28580;-89
2021/04/20 14:14:02;;;;;;;3.52;2.95;;;;;;;24.90;30.96;98690.22;4383541;80;28633;-86
2021/04/20 14:20:20;;;;;;;5.42;3.52;;;;;;;25.37;29.21;98684.23;4369974;80;28583;-87
2021/04/20 14:26:26;;;;;;;5.78;3.50;;;;;;;24.86;29.92;98685.95;4351247;79;28621;-87
2021/04/20 14:32:34;;;;;;;5.67;3.83;;;;;;;25.08;29.48;98685.95;4400272;80;28586;-87
2021/04/20 14:38:41;;;;;;;5.33;3.40;;;;;;;25.03;30.43;98684.22;4342094;80;28623;-88
2021/04/20 14:44:45;;;;;;;4.93;3.37;;;;;;;25.39;29.29;98679.98;4357507;80;28575;-87
2021/04/20 14:50:53;;;;;;;5.08;3.25;;;;;;;25.17;29.56;98675.69;4312859;81;28571;-87
2021/04/20 14:56:57;;;;;;;5.50;3.20;;;;;;;25.05;29.38;98677.80;4341878;80;28608;-87
2021/04/20 15:03:01;;;;;;;5.60;3.20;;;;;;;24.97;27.63;98670.42;4346912;80;28609;-86
2021/04/20 15:09:14;;;;;;;4.45;2.80;;;;;;;24.16;27.73;98662.48;4351980;81;28599;-86
2021/04/20 15:15:32;;;;;;;4.22;3.00;;;;;;;24.04;27.83;98667.87;4336388;80;28627;-87
2021/04/20 15:21:49;;;;;;;;;;;;;;;23.85;28.54;98671.80;4312168;81;28640;-87
2021/04/20 15:27:59;;;;;;;4.67;2.35;;;;;;;23.55;27.38;98683.28;4289738;81;20261;-87
2021/04/20 15:34:13;;;;;;;4.15;3.15;;;;;;;23.92;28.19;98672.66;4360399;81;28624;-88
2021/04/20 15:40:16;;;;;;;4.62;2.65;;;;;;;23.57;28.28;98680.44;4329939;80;28598;-84
2021/04/20 15:46:26;;;;;;;4.53;2.90;;;;;;;23.97;27.50;98673.85;4319033;81;28674;-85
2021/04/20 15:52:33;;;;;;;5.62;2.85;;;;;;;23.44;28.40;98678.70;4310198;81;28653;-86
2021/04/20 15:59:07;;;;;;;5.42;3.35;;;;;;;23.58;28.70;98686.73;4282687;81;28574;-88
2021/04/20 16:05:22;;;;;;;3.87;2.62;;;;;;;23.42;28.79;98683.13;4621624;76;85827;-84
2021/04/20 16:11:26;;;;;;;7.78;3.17;;;;;;;23.92;29.38;98674.02;4493604;78;28556;-86
2021/04/20 16:17:31;;;;;;;4.30;2.90;;;;;;;24.07;29.16;98673.52;4517580;78;28589;-82
2021/04/20 16:23:36;;;;;;;5.03;3.00;;;;;;;23.86;29.27;98668.50;4313750;81;28599;-83
2021/04/20 16:29:46;;;;;;;5.20;3.12;;;;;;;23.73;29.70;98671.09;4363964;81;28595;-83
2021/04/20 16:35:52;;;;;;;4.90;3.00;;;;;;;23.48;29.73;98661.81;4349530;80;28595;-85
2021/04/20 16:42:28;;;;;;;7.85;3.10;;;;;;;23.52;30.01;98669.65;4356730;81;28667;-86
2021/04/20 16:49:02;;;;;;;;;;;;;;;23.14;30.36;98662.09;4378093;81;28624;-84
2021/04/20 16:55:33;;;;;;;6.72;2.60;;;;;;;22.98;29.88;98663.40;4317157;81;20283;-86
2021/04/20 17:01:54;;;;;;;6.45;3.05;;;;;;;23.15;30.05;98663.16;4393849;79;28596;-92
2021/04/20 17:08:12;;;;;;;3.65;2.70;;;;;;;23.00;31.12;98660.34;4472134;80;28663;-83
2021/04/20 17:14:35;;;;;;;5.40;3.00;;;;;;;22.76;31.56;98672.61;4437622;79;28567;-82
2021/04/20 17:20:49;;;;;;;5.95;3.00;;;;;;;22.62;31.99;98667.83;4318384;82;28579;-84
2021/04/20 17:27:14;;;;;;;5.85;2.92;;;;;;;22.25;32.41;98670.24;4397365;80;28594;-84
2021/04/20 17:33:53;;;;;;;4.40;2.75;;;;;;;22.13;35.98;98673.58;4397933;80;28563;-86
2021/04/20 17:40:17;;;;;;;5.28;3.02;;;;;;;21.69;34.62;98671.24;4280793;82;28590;-89
2021/04/20 17:46:40;;;;;;;5.17;2.90;;;;;;;21.50;33.90;98667.31;4449790;80;28597;-87
2021/04/20 17:53:10;;;;;;;5.58;3.30;;;;;;;21.12;34.47;98674.81;4450272;80;28942;-85
2021/04/20 17:59:45;;;;;;;4.85;2.37;;;;;;;20.62;35.62;98679.76;4449700;80;28617;-83
2021/04/20 18:06:10;;;;;;;9.33;3.47;;;;;;;20.52;35.62;98687.59;4376176;81;28649;-85
2021/04/20 18:12:42;;;;;;;6.83;3.10;;;;;;;20.29;35.71;98695.72;4351547;81;28580;-85
2021/04/20 18:19:02;;;;;;;6.28;3.42;;;;;;;20.56;36.11;98707.70;4344806;81;28553;-86
2021/04/20 18:25:16;;;;;;;7.83;3.22;;;;;;;20.24;36.89;98704.57;4415965;80;28584;-82
2021/04/20 18:31:51;;;;;;;5.50;3.00;;;;;;;19.87;38.96;98719.42;4294050;81;28645;-82
2021/04/20 18:38:17;;;;;;;7.22;3.37;;;;;;;19.90;37.72;98718.81;4276943;81;28565;-81
2021/04/20 18:44:28;;;;;;;7.78;3.25;;;;;;;20.15;37.29;98722.19;4379404;80;28579;-82
2021/04/20 18:51:02;;;;;;;6.00;3.17;;;;;;;19.88;39.00;98726.49;4381939;80;28598;-83
2021/04/20 18:57:23;;;;;;;5.70;3.17;;;;;;;19.50;40.15;98735.59;4339334;80;28751;-82
2021/04/20 19:03:30;;;;;;;5.87;3.27;;;;;;;19.65;39.17;98739.41;4360377;80;28609;-82
2021/04/20 19:09:50;;;;;;;5.33;3.12;;;;;;;19.41;38.93;98745.56;4284927;81;28598;-84
2021/04/20 19:16:37;;;;;;;7.17;3.92;;;;;;;19.32;38.54;98747.59;4300736;81;28595;-83
2021/04/20 19:22:56;;;;;;;9.38;4.75;;;;;;;19.32;40.60;98739.98;4328645;82;28579;-81
2021/04/20 19:29:15;;;;;;;8.70;4.72;;;;;;;19.25;41.07;98747.72;4323669;82;28567;-85
2021/04/20 19:35:47;;;;;;;8.98;4.30;;;;;;;19.02;42.70;98741.49;4346489;80;28643;-83
2021/04/20 19:42:25;;;;;;;14.25;5.97;;;;;;;18.84;43.32;98744.44;4352520;80;28597;-83
2021/04/20 19:48:41;;;;;;;14.13;7.90;;;;;;;19.09;42.27;98747.93;4541579;76;84878;-84
2021/04/20 19:54:50;;;;;;;10.85;6.22;;;;;;;19.01;41.63;98742.60;4456688;79;28668;-84
2021/04/20 20:00:52;;;;;;;11.25;6.05;;;;;;;18.93;43.95;98747.31;4465946;77;28621;-83
2021/04/20 20:06:57;;;;;;;14.38;6.78;;;;;;;18.68;45.69;98750.65;4336229;81;28627;-82
2021/04/20 20:13:04;;;;;;;12.10;6.72;;;;;;;18.66;45.10;98754.22;4306265;81;28672;-83
2021/04/20 20:19:16;;;;;;;14.53;6.55;;;;;;;18.29;46.33;98746.20;4284170;82;28633;-83
2021/04/20 20:25:24;;;;;;;21.12;9.03;;;;;;;18.22;47.81;98751.47;4294382;82;28598;-84
2021/04/20 20:31:27;;;;;;;18.32;10.55;;;;;;;18.64;44.12;98752.31;4294010;82;28567;-84
2021/04/20 20:37:30;;;;;;;23.85;12.35;;;;;;;18.85;42.95;98751.50;4295646;81;28602;-85
2021/04/20 20:49:48;;;;;;;28.02;14.38;;;;;;;18.77;43.37;98754.34;4557952;76;85198;-85
2021/04/20 20:55:50;;;;;;;28.17;14.43;;;;;;;18.68;44.16;98754.16;4481208;78;28604;-88
2021/04/20 21:01:59;;;;;;;25.17;13.32;;;;;;;18.80;43.91;98763.84;4482578;79;28588;-88
2021/04/20 21:08:14;;;;;;;25.70;14.15;;;;;;;18.72;45.04;98763.12;4420559;79;28574;-88
2021/04/20 21:14:27;;;;;;;24.87;12.65;;;;;;;18.67;45.73;98759.35;4445230;78;28572;-88
2021/04/20 21:20:32;;;;;;;24.47;13.40;;;;;;;18.81;45.98;98755.94;4541430;78;28563;-87
2021/04/20 21:26:40;;;;;;;27.77;14.33;;;;;;;18.51;47.43;98756.58;4506424;78;28570;-86
2021/04/20 21:32:52;;;;;;;32.55;17.40;;;;;;;18.64;46.17;98760.48;4501324;78;28616;-87
2021/04/20 21:39:07;;;;;;;36.85;18.80;;;;;;;18.70;45.23;98759.89;4462312;78;28590;-85
2021/04/20 21:45:24;;;;;;;35.25;17.40;;;;;;;18.90;44.72;98760.98;4499690;78;28588;-86
2021/04/20 21:51:41;;;;;;;32.60;17.52;;;;;;;18.81;44.50;98761.38;4422918;78;28650;-88
2021/04/20 21:57:50;;;;;;;36.83;18.65;;;;;;;18.80;44.49;98763.28;4455197;80;28570;-88
2021/04/20 22:04:09;;;;;;;28.70;16.10;;;;;;;18.47;45.00;98773.21;4458864;79;28571;-85
2021/04/20 22:10:40;;;;;;;31.35;16.90;;;;;;;18.91;45.56;98774.03;4447024;78;28596;-84
2021/04/20 22:16:42;;;;;;;33.20;16.97;;;;;;;18.98;46.82;98772.31;4458742;78;28574;-86
2021/04/20 22:22:47;;;;;;;30.50;17.20;;;;;;;18.68;47.30;98781.39;4459772;78;28608;-86
2021/04/20 22:28:51;;;;;;;33.35;17.23;;;;;;;18.70;47.50;98774.30;4435390;79;28656;-86
2021/04/20 22:34:57;;;;;;;32.00;16.77;;;;;;;18.42;48.86;98780.09;4440185;80;28602;-85
2021/04/20 22:41:27;;;;;;;29.60;15.88;;;;;;;18.49;47.59;98787.37;4453948;78;28573;-86
2021/04/20 22:47:40;;;;;;;30.25;16.10;;;;;;;18.01;49.11;98779.38;4489037;78;28590;-85
2021/04/20 22:53:45;;;;;;;32.13;16.50;;;;;;;18.04;47.90;98778.83;4521021;78;28626;-86
2021/04/20 22:59:56;;;;;;;30.43;15.95;;;;;;;18.37;46.20;98783.11;4501468;78;28590;-86
2021/04/20 23:06:06;;;;;;;27.45;16.10;;;;;;;18.17;46.53;98787.41;4510590;78;28570;-85
2021/04/20 23:12:14;;;;;;;30.25;16.82;;;;;;;17.87;47.47;98779.80;4512013;78;28644;-85
2021/04/20 23:18:15;;;;;;;29.33;16.00;;;;;;;18.18;46.68;98776.81;4491312;78;34432;-85
2021/04/20 23:24:28;;;;;;;27.62;14.90;;;;;;;18.03;47.08;98773.14;4486105;78;28549;-86
2021/04/20 23:30:57;;;;;;;29.98;15.83;;;;;;;17.91;47.53;98778.95;4497792;77;28645;-84
2021/04/20 23:37:00;;;;;;;29.72;16.75;;;;;;;18.13;46.87;98775.49;4512595;78;28573;-85
2021/04/20 23:43:04;;;;;;;33.65;17.15;;;;;;;18.27;45.96;98777.78;4503527;78;28602;-86
2021/04/20 23:49:12;;;;;;;31.45;16.80;;;;;;;18.32;45.67;98770.94;4507557;77;28654;-84
2021/04/20 23:55:16;;;;;;;27.55;14.58;;;;;;;17.76;47.64;98773.09;4492120;78;28593;-83
